Weather History for Appleton, MN

Change the Weather History Date:

Monday, May 28, 2012

  Actual Average Record
Temperature  
Mean Temperature 62 °F -  
Max Temperature 71 °F 69 °F 91 °F (2006)
Min Temperature 53 °F 47 °F 39 °F (2004)
Degree Days  
Heating Degree Days 3    
Growing Degree Days 12 (Base 50)    
Moisture  
Dew Point 51 °F    
Average Humidity 68    
Maximum Humidity 100    
Minimum Humidity 33    
Precipitation  
Precipitation 0.01 in - - ()
Sea Level Pressure  
Sea Level Pressure 29.69 in    
Wind  
Wind Speed 8 mph (West)    
Max Wind Speed 26 mph    
Max Gust Speed 31 mph    
Visibility 10 miles    
Events Fog    
Averages and records for this station are not official NWS values.
T = Trace of Precipitation, MM = Missing Value Source: NWS Daily Summary

Daily Weather History Graph

Daily Weather History Graph

Search for Another Location

Airport:

Trip Planner

Search our weather history database for the weather conditions in past years. The results will help you decide how hot, cold, wet, or windy it might be!

Date:

Astronomy

May. 28, 2012 Rise Set
Actual Time 5:41 AM CDT 9:01 PM CDT
Civil Twilight 5:05 AM CDT 9:37 PM CDT
Nautical Twilight 4:18 AM CDT 10:25 PM CDT
Astronomical Twilight 3:19 AM CDT 11:24 PM CDT
Moon 1:07 PM CDT (5/28) 1:26 AM CDT (5/28)
Length of Visible Light 16h 31m
Length of Day
15h 19m
Waxing Crescent, 49% of the Moon is Illuminated
May 28
Waxing Crescent
May 28
First Quarter
Jun 4
Full
Jun 11
Last Quarter
Jun 19
New

Hourly Weather History & Observations

Time (CDT) Temp. Dew Point Humidity Pressure Visibility Wind Dir Wind Speed Gust Speed Precip Events Conditions
12:14 AM 62.6 °F 60.8 °F 94% 29.65 in 10.0 mi SSW 3.5 mph - N/A   Clear
12:35 AM 62.6 °F 60.8 °F 94% 29.65 in 10.0 mi Calm Calm - N/A   Clear
12:54 AM 62.6 °F 60.8 °F 94% 29.66 in 10.0 mi Calm Calm - N/A   Scattered Clouds
1:14 AM 62.6 °F 60.8 °F 94% 29.67 in 10.0 mi SW 3.5 mph - N/A   Scattered Clouds
1:35 AM 62.6 °F 60.8 °F 94% 29.67 in 10.0 mi Calm Calm - N/A   Mostly Cloudy
1:54 AM 62.6 °F 62.6 °F 100% 29.68 in 10.0 mi West 12.7 mph - N/A   Mostly Cloudy
2:14 AM 64.4 °F 60.8 °F 88% 29.64 in 10.0 mi Calm Calm - N/A   Scattered Clouds
2:35 AM 62.6 °F 60.8 °F 94% 29.66 in 10.0 mi WSW 3.5 mph - N/A   Clear
2:55 AM 62.6 °F 60.8 °F 94% 29.61 in 10.0 mi East 9.2 mph - N/A   Clear
3:14 AM 62.6 °F 60.8 °F 94% 29.63 in 10.0 mi West 10.4 mph - N/A   Clear
3:34 AM 62.6 °F 60.8 °F 94% 29.64 in 10.0 mi WSW 6.9 mph - N/A   Clear
3:54 AM 60.8 °F 59.0 °F 94% 29.64 in 10.0 mi South 4.6 mph - N/A   Clear
4:14 AM 62.6 °F 60.8 °F 94% 29.64 in 10.0 mi South 4.6 mph - N/A   Clear
4:34 AM 60.8 °F 60.8 °F 100% 29.63 in 10.0 mi Calm Calm - N/A   Clear
5:14 AM 59.0 °F 57.2 °F 94% 29.62 in 0.5 mi Calm Calm - N/A Fog Fog
5:34 AM 60.8 °F 59.0 °F 94% 29.64 in 10.0 mi Calm Calm - N/A   Clear
5:54 AM 59.0 °F 59.0 °F 100% 29.64 in 7.0 mi SSW 3.5 mph - N/A   Clear
6:14 AM 59.0 °F 57.2 °F 94% 29.65 in 7.0 mi South 3.5 mph - N/A   Clear
6:34 AM 60.8 °F 59.0 °F 94% 29.65 in 4.0 mi SSW 3.5 mph - N/A   Scattered Clouds
6:54 AM 60.8 °F 59.0 °F 94% 29.65 in 7.0 mi WSW 6.9 mph - N/A   Scattered Clouds
7:15 AM 60.8 °F 57.2 °F 88% 29.65 in 10.0 mi West 5.8 mph - N/A   Clear
7:35 AM 60.8 °F 55.4 °F 82% 29.65 in 10.0 mi WSW 5.8 mph - N/A   Clear
7:54 AM 62.6 °F 57.2 °F 82% 29.65 in 10.0 mi West 4.6 mph - N/A   Clear
8:14 AM 62.6 °F 57.2 °F 82% 29.65 in 10.0 mi West 3.5 mph - N/A   Clear
8:35 AM 64.4 °F 57.2 °F 77% 29.64 in 10.0 mi Calm Calm - 0.01 in   Clear
8:54 AM 64.4 °F 57.2 °F 77% 29.64 in 10.0 mi SSW 5.8 mph - 0.01 in   Clear
9:15 AM 66.2 °F 57.2 °F 73% 29.63 in 10.0 mi SSW 9.2 mph - N/A   Clear
9:35 AM 68.0 °F 57.2 °F 68% 29.63 in 10.0 mi SSW 11.5 mph - N/A   Clear
9:54 AM 69.8 °F 59.0 °F 68% 29.63 in 10.0 mi SW 12.7 mph 17.3 mph N/A   Clear
10:15 AM 69.8 °F 59.0 °F 68% 29.64 in 10.0 mi SW 13.8 mph 18.4 mph N/A   Scattered Clouds
10:34 AM 71.6 °F 59.0 °F 64% 29.63 in 10.0 mi WSW 13.8 mph 19.6 mph N/A   Mostly Cloudy
10:54 AM 66.2 °F 55.4 °F 68% 29.63 in 10.0 mi NNW 18.4 mph 23.0 mph N/A   Mostly Cloudy
11:14 AM 66.2 °F 55.4 °F 68% 29.64 in 10.0 mi North 19.6 mph - N/A   Scattered Clouds
11:34 AM 66.2 °F 55.4 °F 68% 29.64 in 10.0 mi North 16.1 mph - N/A   Clear
11:54 AM 64.4 °F 53.6 °F 68% 29.67 in 10.0 mi NNW 15.0 mph 18.4 mph N/A   Mostly Cloudy
12:15 PM 62.6 °F 53.6 °F 72% 29.69 in 10.0 mi NW 16.1 mph 25.3 mph N/A   Overcast
12:35 PM 62.6 °F 51.8 °F 68% 29.70 in 10.0 mi NNW 15.0 mph 24.2 mph N/A   Overcast
12:54 PM 64.4 °F 51.8 °F 64% 29.70 in 10.0 mi NW 15.0 mph 20.7 mph N/A   Mostly Cloudy
1:14 PM 64.4 °F 51.8 °F 64% 29.70 in 10.0 mi NW 12.7 mph 19.6 mph N/A   Scattered Clouds
1:34 PM 66.2 °F 51.8 °F 60% 29.70 in 10.0 mi NW 15.0 mph 24.2 mph N/A   Clear
1:55 PM 68.0 °F 50.0 °F 52% 29.70 in 10.0 mi WNW 15.0 mph 23.0 mph N/A   Clear
2:14 PM 68.0 °F 48.2 °F 49% 29.70 in 10.0 mi NW 13.8 mph 19.6 mph N/A   Scattered Clouds
2:35 PM 68.0 °F 48.2 °F 49% 29.70 in 10.0 mi WNW 15.0 mph 20.7 mph N/A   Scattered Clouds
2:54 PM 69.8 °F 48.2 °F 46% 29.70 in 10.0 mi WNW 18.4 mph - N/A   Scattered Clouds
3:14 PM 69.8 °F 44.6 °F 40% 29.71 in 10.0 mi West 24.2 mph 27.6 mph N/A   Scattered Clouds
3:34 PM 69.8 °F 42.8 °F 38% 29.72 in 10.0 mi West 18.4 mph 28.8 mph N/A   Scattered Clouds
3:54 PM 69.8 °F 44.6 °F 40% 29.73 in 10.0 mi West 21.9 mph 29.9 mph N/A   Scattered Clouds
4:14 PM 69.8 °F 41.0 °F 35% 29.73 in 10.0 mi West 25.3 mph 29.9 mph N/A   Scattered Clouds
4:34 PM 68.0 °F 37.4 °F 33% 29.75 in 10.0 mi West 26.5 mph 31.1 mph N/A   Scattered Clouds
4:55 PM 68.0 °F 37.4 °F 33% 29.75 in 10.0 mi West 26.5 mph 29.9 mph N/A   Clear
5:14 PM 68.0 °F 39.2 °F 35% 29.75 in 10.0 mi West 17.3 mph 28.8 mph N/A   Scattered Clouds
5:34 PM 66.2 °F 39.2 °F 37% 29.76 in 10.0 mi West 18.4 mph 27.6 mph N/A   Scattered Clouds
6:14 PM 64.4 °F 37.4 °F 37% 29.75 in 10.0 mi West 15.0 mph 23.0 mph N/A   Scattered Clouds
6:35 PM 64.4 °F 39.2 °F 40% 29.75 in 10.0 mi West 15.0 mph 21.9 mph N/A   Mostly Cloudy
6:54 PM 64.4 °F 37.4 °F 37% 29.75 in 10.0 mi West 16.1 mph 27.6 mph N/A   Overcast
7:15 PM 64.4 °F 39.2 °F 40% 29.76 in 10.0 mi West 15.0 mph - N/A   Overcast
7:34 PM 64.4 °F 39.2 °F 40% 29.76 in 10.0 mi West 16.1 mph 19.6 mph N/A   Overcast
7:54 PM 64.4 °F 37.4 °F 37% 29.76 in 10.0 mi West 21.9 mph 25.3 mph N/A   Mostly Cloudy
8:15 PM 62.6 °F 37.4 °F 39% 29.76 in 10.0 mi West 17.3 mph - N/A   Scattered Clouds
8:35 PM 62.6 °F 39.2 °F 42% 29.76 in 10.0 mi West 12.7 mph - N/A   Mostly Cloudy
8:54 PM 62.6 °F 37.4 °F 39% 29.76 in 10.0 mi West 12.7 mph - N/A   Overcast
9:14 PM 60.8 °F 39.2 °F 45% 29.76 in 10.0 mi West 11.5 mph - N/A   Mostly Cloudy
9:35 PM 57.2 °F 42.8 °F 59% 29.77 in 10.0 mi West 6.9 mph - N/A   Scattered Clouds
9:54 PM 55.4 °F 42.8 °F 63% 29.77 in 10.0 mi West 9.2 mph - N/A   Clear
10:14 PM 55.4 °F 42.8 °F 63% 29.77 in 10.0 mi West 10.4 mph - N/A   Clear
10:34 PM 53.6 °F 42.8 °F 67% 29.76 in 10.0 mi WSW 6.9 mph - N/A   Clear
10:54 PM 53.6 °F 44.6 °F 72% 29.76 in 10.0 mi West 6.9 mph - N/A   Mostly Cloudy
11:15 PM 53.6 °F 42.8 °F 67% 29.76 in 10.0 mi WSW 8.1 mph - N/A   Scattered Clouds
11:34 PM 53.6 °F 42.8 °F 67% 29.75 in 10.0 mi WSW 8.1 mph - N/A   Clear
11:54 PM 53.6 °F 42.8 °F 67% 29.75 in 10.0 mi WSW 9.2 mph - N/A   Clear